Time;durP1;ratioP1;P1;durP2;ratioP2;P2;SDS_P1;SDS_P2;PMS_P1;PMS_P2;Temp;Humidity;BMP_temperature;BMP_pressure;BME280_temperature;BME280_humidity;BME280_pressure;Samples;Min_cycle;Max_cycle;Signal;HPM_P1;HPM_P2
2021/03/13 00:01:07;;;;;;;62.27;42.40;;;7.80;90.50;;;;;;5039141;28;20302;-60
2021/03/13 00:03:35;;;;;;;71.63;46.50;;;7.80;90.60;;;;;;5040786;28;20272;-61
2021/03/13 00:06:02;;;;;;;62.10;41.13;;;7.80;90.50;;;;;;5021302;28;20341;-60
2021/03/13 00:08:29;;;;;;;66.80;43.67;;;7.80;90.50;;;;;;5041921;28;20226;-60
2021/03/13 00:10:56;;;;;;;96.73;60.20;;;7.70;90.40;;;;;;5033114;28;20227;-60
2021/03/13 00:13:23;;;;;;;84.20;52.43;;;7.70;90.40;;;;;;5008760;28;20222;-60
2021/03/13 00:15:51;;;;;;;73.93;48.57;;;7.70;90.30;;;;;;5034449;28;20235;-61
2021/03/13 00:18:18;;;;;;;50.23;35.73;;;7.60;90.40;;;;;;5031449;28;20293;-60
2021/03/13 00:20:46;;;;;;;56.47;25.43;;;7.60;90.50;;;;;;5033921;28;20207;-60
2021/03/13 00:23:13;;;;;;;29.67;24.33;;;7.50;90.30;;;;;;5041360;28;20209;-60
2021/03/13 00:25:42;;;;;;;34.00;25.63;;;7.50;90.20;;;;;;5050704;28;20215;-60
2021/03/13 00:28:09;;;;;;;27.97;23.87;;;7.40;90.20;;;;;;5036338;28;20211;-60
2021/03/13 00:30:41;;;;;;;43.67;32.53;;;7.40;90.20;;;;;;5045336;28;20626;-60
2021/03/13 00:33:11;;;;;;;59.37;41.07;;;7.30;90.20;;;;;;5033973;28;20235;-60
2021/03/13 00:35:40;;;;;;;56.83;43.40;;;7.30;90.20;;;;;;5034920;28;20234;-60
2021/03/13 00:38:08;;;;;;;71.07;46.43;;;7.20;90.30;;;;;;5032066;28;20203;-60
2021/03/13 00:40:37;;;;;;;59.37;41.20;;;7.10;90.20;;;;;;5031933;28;20237;-60
2021/03/13 00:43:06;;;;;;;61.90;43.57;;;7.10;90.40;;;;;;5015246;28;20249;-60
2021/03/13 00:45:34;;;;;;;69.63;45.90;;;7.20;90.50;;;;;;5036649;28;20215;-60
2021/03/13 00:48:03;;;;;;;73.53;43.80;;;7.20;90.60;;;;;;5027639;28;20637;-60
2021/03/13 00:50:33;;;;;;;64.53;39.53;;;7.20;91.10;;;;;;5029948;28;20207;-60
2021/03/13 00:53:01;;;;;;;51.77;34.33;;;7.20;90.90;;;;;;5033776;28;20241;-60
2021/03/13 00:55:28;;;;;;;89.30;52.20;;;7.20;91.00;;;;;;5025823;28;20230;-60
2021/03/13 00:57:56;;;;;;;85.07;50.40;;;7.20;91.20;;;;;;5037406;28;20203;-60
2021/03/13 01:00:38;;;;;;;64.37;41.17;;;7.20;91.40;;;;;;5025366;28;20202;-60
2021/03/13 01:03:07;;;;;;;59.50;39.70;;;7.20;91.50;;;;;;5028511;28;20223;-60
2021/03/13 01:05:35;;;;;;;53.07;36.90;;;7.30;91.50;;;;;;5031035;28;20705;-60
2021/03/13 01:08:05;;;;;;;74.57;46.67;;;7.30;91.50;;;;;;5036968;28;20215;-60
2021/03/13 01:10:50;;;;;;;62.70;41.23;;;7.40;91.60;;;;;;5027353;28;20207;-60
2021/03/13 01:13:22;;;;;;;51.63;36.03;;;7.40;91.60;;;;;;5041954;28;20207;-60
2021/03/13 01:15:49;;;;;;;69.40;45.57;;;7.40;91.50;;;;;;5037845;28;20262;-60
2021/03/13 01:18:20;;;;;;;67.80;44.23;;;7.40;91.40;;;;;;5042969;28;20244;-60
2021/03/13 01:20:52;;;;;;;65.97;42.23;;;7.40;91.40;;;;;;5044334;28;20206;-60
2021/03/13 01:23:19;;;;;;;52.53;35.50;;;7.30;91.20;;;;;;5043830;28;20225;-60
2021/03/13 01:25:46;;;;;;;77.47;46.27;;;7.30;91.20;;;;;;5052676;28;20226;-60
2021/03/13 01:28:13;;;;;;;79.10;49.93;;;7.20;91.10;;;;;;5044967;28;20226;-60
2021/03/13 01:30:57;;;;;;;68.30;43.60;;;7.20;91.30;;;;;;5038510;28;20206;-60
2021/03/13 01:33:24;;;;;;;62.03;44.30;;;7.20;91.40;;;;;;5043366;28;20573;-60
2021/03/13 01:35:51;;;;;;;53.80;38.30;;;7.20;91.30;;;;;;5027442;28;20237;-60
2021/03/13 01:38:19;;;;;;;59.60;40.97;;;7.20;91.30;;;;;;5037257;28;20231;-60
2021/03/13 01:40:47;;;;;;;51.40;37.90;;;7.10;91.00;;;;;;5031408;28;20305;-60
2021/03/13 01:43:14;;;;;;;53.33;39.17;;;7.00;90.70;;;;;;5039674;28;20221;-60
2021/03/13 01:45:41;;;;;;;60.80;41.83;;;6.90;90.50;;;;;;5039174;28;20206;-60
2021/03/13 01:48:09;;;;;;;52.40;37.27;;;6.80;90.60;;;;;;5027229;28;20210;-60
2021/03/13 01:50:37;;;;;;;47.00;34.33;;;6.80;90.80;;;;;;5034858;28;20226;-60
2021/03/13 01:53:04;;;;;;;48.90;34.80;;;6.80;90.90;;;;;;5031773;28;20636;-60
2021/03/13 01:55:31;;;;;;;57.67;37.40;;;6.70;90.70;;;;;;5035233;28;20241;-60
2021/03/13 01:57:58;;;;;;;70.97;45.50;;;6.70;90.70;;;;;;5026277;28;20737;-60
2021/03/13 02:00:26;;;;;;;66.10;42.00;;;6.80;90.90;;;;;;5041104;28;20644;-60
2021/03/13 02:02:53;;;;;;;108.80;52.30;;;6.80;91.20;;;;;;5038536;28;20221;-60
2021/03/13 02:05:25;;;;;;;447.83;55.20;;;6.80;91.30;;;;;;5043268;28;20210;-60
2021/03/13 02:08:25;;;;;;;165.37;34.87;;;6.90;91.70;;;;;;5037968;28;20207;-60
2021/03/13 02:11:24;;;;;;;37.37;25.30;;;6.80;91.10;;;;;;5028734;28;20287;-60
2021/03/13 02:14:13;;;;;;;34.40;27.33;;;6.50;90.70;;;;;;4992028;28;21026;-60
2021/03/13 02:16:55;;;;;;;35.80;28.40;;;6.40;91.00;;;;;;5033806;28;20698;-60
2021/03/13 02:19:49;;;;;;;37.23;29.77;;;6.30;90.80;;;;;;5031732;28;20241;-60
2021/03/13 02:22:19;;;;;;;35.43;27.97;;;6.10;90.70;;;;;;5035711;28;20211;-61
2021/03/13 02:25:17;;;;;;;39.23;30.43;;;6.10;90.60;;;;;;5026117;28;20621;-60
2021/03/13 02:28:21;;;;;;;37.13;29.87;;;6.00;90.50;;;;;;5036131;28;20255;-60
2021/03/13 02:30:50;;;;;;;41.77;31.70;;;5.80;90.40;;;;;;5027091;28;20234;-60
2021/03/13 02:33:28;;;;;;;36.53;28.43;;;5.70;90.40;;;;;;5014728;28;20589;-60
2021/03/13 02:35:58;;;;;;;45.20;30.43;;;5.70;90.40;;;;;;5039492;28;20227;-60
2021/03/13 02:38:46;;;;;;;40.70;31.20;;;5.60;90.40;;;;;;5036105;28;20211;-60
2021/03/13 02:41:19;;;;;;;38.70;29.03;;;5.60;90.40;;;;;;5035992;28;20207;-60
2021/03/13 02:43:51;;;;;;;58.50;36.43;;;5.60;90.30;;;;;;5029674;28;20253;-60
2021/03/13 02:46:22;;;;;;;58.30;33.57;;;5.60;90.20;;;;;;5043493;28;20527;-60
2021/03/13 02:48:51;;;;;;;63.77;34.43;;;5.50;90.20;;;;;;5029585;28;20211;-60
2021/03/13 02:51:23;;;;;;;59.40;30.17;;;5.50;90.20;;;;;;5022523;28;20218;-60
2021/03/13 02:53:52;;;;;;;44.67;28.53;;;5.40;90.20;;;;;;5044139;28;20545;-60
2021/03/13 02:56:19;;;;;;;60.13;30.53;;;5.40;90.20;;;;;;5023271;28;20231;-60
2021/03/13 02:58:50;;;;;;;206.43;40.97;;;5.40;90.30;;;;;;5035674;28;20211;-60
2021/03/13 03:01:21;;;;;;;267.70;41.83;;;5.30;90.40;;;;;;5040545;28;20285;-60
2021/03/13 03:03:51;;;;;;;381.53;41.77;;;5.30;90.50;;;;;;5027733;28;20610;-60
2021/03/13 03:06:19;;;;;;;332.83;38.63;;;5.30;90.60;;;;;;5028724;28;20207;-60
2021/03/13 03:08:47;;;;;;;309.90;41.53;;;5.20;90.50;;;;;;5036266;28;20526;-60
2021/03/13 03:11:25;;;;;;;713.93;60.93;;;5.10;90.60;;;;;;5017073;28;20222;-60
2021/03/13 03:13:53;;;;;;;567.57;50.93;;;5.10;90.80;;;;;;5027648;28;20242;-60
2021/03/13 03:16:22;;;;;;;675.50;73.17;;;5.10;91.00;;;;;;5035816;28;20246;-60
2021/03/13 03:18:53;;;;;;;744.17;75.80;;;5.00;91.10;;;;;;5030201;28;20226;-61
2021/03/13 03:21:20;;;;;;;416.53;53.23;;;5.00;91.20;;;;;;5036514;28;20286;-61
2021/03/13 03:23:49;;;;;;;603.17;59.50;;;5.00;91.30;;;;;;5040862;28;20207;-60
2021/03/13 03:26:17;;;;;;;779.90;75.80;;;5.00;91.50;;;;;;5015136;28;20629;-60
2021/03/13 03:28:46;;;;;;;899.53;88.97;;;5.10;91.70;;;;;;5031388;28;20751;-62
2021/03/13 03:31:14;;;;;;;785.77;81.10;;;5.10;91.70;;;;;;5026211;28;20211;-61
2021/03/13 03:33:43;;;;;;;321.47;50.57;;;5.10;91.70;;;;;;5043581;28;20749;-61
2021/03/13 03:36:11;;;;;;;259.70;45.90;;;5.20;91.80;;;;;;5043168;28;20277;-61
2021/03/13 03:38:38;;;;;;;327.90;49.80;;;5.20;91.90;;;;;;5020558;28;20211;-61
2021/03/13 03:41:05;;;;;;;326.90;48.20;;;5.20;92.00;;;;;;5012857;28;20219;-61
2021/03/13 03:43:43;;;;;;;488.80;55.50;;;5.20;92.00;;;;;;5047118;28;20273;-61
2021/03/13 03:46:12;;;;;;;155.17;38.83;;;5.20;92.10;;;;;;5027287;28;20279;-61
2021/03/13 03:48:41;;;;;;;131.53;37.10;;;5.20;92.10;;;;;;5026310;28;20684;-61
2021/03/13 03:51:13;;;;;;;74.50;31.73;;;5.20;92.20;;;;;;5049486;28;20282;-61
2021/03/13 03:53:42;;;;;;;35.93;29.00;;;5.20;92.20;;;;;;5042246;28;20202;-61
2021/03/13 03:56:10;;;;;;;36.00;27.47;;;5.10;92.10;;;;;;5029297;28;20223;-60
2021/03/13 03:58:39;;;;;;;35.10;29.33;;;5.10;92.10;;;;;;5043011;28;20208;-60
2021/03/13 04:01:08;;;;;;;39.20;29.93;;;5.00;92.00;;;;;;5024481;28;20215;-60
2021/03/13 04:03:46;;;;;;;34.60;28.07;;;5.00;92.00;;;;;;5033251;28;20222;-60
2021/03/13 04:06:13;;;;;;;43.93;29.53;;;5.00;92.00;;;;;;5009428;28;20239;-60
2021/03/13 04:08:44;;;;;;;56.30;29.97;;;5.00;92.00;;;;;;5029405;28;20536;-60
2021/03/13 04:11:19;;;;;;;163.80;32.33;;;5.00;91.90;;;;;;5044972;28;20225;-60
2021/03/13 04:13:49;;;;;;;128.10;30.80;;;4.90;91.80;;;;;;5040423;28;20261;-60
2021/03/13 04:16:17;;;;;;;90.00;32.30;;;4.90;91.70;;;;;;5038556;28;20322;-60
2021/03/13 04:18:44;;;;;;;264.83;39.97;;;4.80;91.60;;;;;;5027178;28;20909;-61
2021/03/13 04:21:13;;;;;;;249.33;37.20;;;4.80;91.60;;;;;;5025171;28;20200;-61
2021/03/13 04:23:46;;;;;;;45.43;24.67;;;4.70;91.50;;;;;;5032113;28;20570;-60
2021/03/13 04:26:16;;;;;;;76.50;27.23;;;4.60;91.60;;;;;;5030422;28;20555;-60
2021/03/13 04:28:48;;;;;;;191.47;34.33;;;4.60;91.70;;;;;;5026531;28;20210;-61
2021/03/13 04:31:17;;;;;;;91.30;29.53;;;4.60;91.80;;;;;;5038808;28;20226;-60
2021/03/13 04:33:47;;;;;;;31.97;26.90;;;4.50;91.70;;;;;;5028540;28;20238;-60
2021/03/13 04:36:15;;;;;;;38.93;26.07;;;4.50;91.70;;;;;;5045853;28;20660;-60
2021/03/13 04:38:43;;;;;;;30.10;24.87;;;4.50;91.70;;;;;;5027248;28;20219;-61
2021/03/13 04:41:11;;;;;;;28.77;22.63;;;4.40;91.50;;;;;;5038110;28;20691;-61
2021/03/13 04:43:39;;;;;;;26.30;23.30;;;4.30;91.50;;;;;;5014403;28;20218;-60
2021/03/13 04:46:06;;;;;;;28.27;24.30;;;4.30;91.60;;;;;;5035830;28;20210;-60
2021/03/13 04:48:34;;;;;;;28.23;23.70;;;4.30;91.60;;;;;;5040518;28;20290;-60
2021/03/13 04:51:05;;;;;;;25.70;22.13;;;4.20;91.50;;;;;;5038761;28;20281;-60
2021/03/13 04:53:32;;;;;;;25.07;22.33;;;4.20;91.40;;;;;;5044749;28;20214;-61
2021/03/13 04:56:00;;;;;;;30.17;25.80;;;4.20;91.40;;;;;;5034460;28;20226;-60
2021/03/13 04:58:29;;;;;;;24.50;19.90;;;4.20;91.50;;;;;;5042041;28;20564;-60
2021/03/13 05:00:57;;;;;;;402.40;43.07;;;4.20;91.50;;;;;;5038848;28;20213;-60
2021/03/13 05:03:38;;;;;;;22.77;19.17;;;4.10;91.60;;;;;;5044788;28;20214;-60
2021/03/13 05:06:06;;;;;;;24.57;21.97;;;4.20;91.60;;;;;;5033776;28;20218;-60
2021/03/13 05:08:33;;;;;;;23.40;20.83;;;4.20;91.70;;;;;;5043191;28;20309;-60
2021/03/13 05:11:00;;;;;;;29.20;19.17;;;4.20;91.70;;;;;;5044934;28;20206;-60
2021/03/13 05:13:28;;;;;;;21.70;19.40;;;4.20;91.60;;;;;;5041688;28;20206;-60
2021/03/13 05:15:55;;;;;;;22.87;20.50;;;4.20;91.50;;;;;;5044305;28;20704;-60
2021/03/13 05:18:22;;;;;;;23.93;20.83;;;4.10;91.40;;;;;;5026125;28;20222;-60
2021/03/13 05:20:49;;;;;;;23.97;20.20;;;4.10;91.60;;;;;;5022472;28;20199;-60
2021/03/13 05:23:16;;;;;;;25.47;21.43;;;4.10;91.60;;;;;;5032842;28;20237;-60
2021/03/13 05:25:44;;;;;;;21.93;19.63;;;4.20;91.60;;;;;;5029194;28;20203;-60
2021/03/13 05:28:12;;;;;;;21.97;19.50;;;4.20;91.50;;;;;;5046053;28;20242;-60
2021/03/13 05:30:40;;;;;;;27.10;19.90;;;4.10;91.40;;;;;;5028199;28;20203;-60
2021/03/13 05:33:07;;;;;;;23.30;20.23;;;4.10;91.40;;;;;;5033016;28;20281;-60
2021/03/13 05:35:37;;;;;;;25.07;21.97;;;4.10;91.30;;;;;;5034229;28;20611;-60
2021/03/13 05:38:05;;;;;;;23.27;20.77;;;4.10;91.40;;;;;;5046340;28;20284;-60
2021/03/13 05:40:32;;;;;;;22.63;20.20;;;4.10;91.40;;;;;;5039522;28;20613;-60
2021/03/13 05:42:59;;;;;;;21.83;19.53;;;4.10;91.40;;;;;;5012078;28;20207;-60
2021/03/13 05:45:26;;;;;;;26.07;21.83;;;4.10;91.30;;;;;;5037812;28;20650;-60
2021/03/13 05:47:54;;;;;;;21.53;19.27;;;4.10;91.30;;;;;;5038688;28;20298;-60
2021/03/13 05:50:23;;;;;;;25.20;20.37;;;4.20;91.30;;;;;;5024156;28;20218;-60
2021/03/13 05:52:54;;;;;;;23.40;20.67;;;4.20;91.30;;;;;;5044134;28;20225;-60
2021/03/13 05:55:21;;;;;;;21.40;19.10;;;4.20;91.20;;;;;;5037792;28;20641;-60
2021/03/13 05:57:53;;;;;;;28.13;24.30;;;4.30;91.10;;;;;;5034645;28;20245;-60
2021/03/13 06:00:21;;;;;;;25.13;22.47;;;4.30;91.00;;;;;;5021937;28;20211;-60
2021/03/13 06:02:50;;;;;;;24.60;21.20;;;4.30;90.90;;;;;;5044753;28;20207;-60
2021/03/13 06:05:18;;;;;;;24.83;22.17;;;4.30;91.10;;;;;;5048446;28;20261;-60
2021/03/13 06:07:46;;;;;;;23.83;21.17;;;4.40;90.70;;;;;;5024245;28;20379;-60
2021/03/13 06:10:16;;;;;;;23.23;20.83;;;4.40;90.60;;;;;;5039780;28;20218;-60
2021/03/13 06:12:43;;;;;;;23.33;20.83;;;4.40;90.60;;;;;;5035040;28;20229;-60
2021/03/13 06:15:11;;;;;;;23.07;20.40;;;4.40;90.60;;;;;;5043443;28;20229;-60
2021/03/13 06:17:58;;;;;;;25.57;22.73;;;4.50;90.40;;;;;;5041772;28;20244;-60
2021/03/13 06:20:33;;;;;;;24.97;21.10;;;4.40;90.30;;;;;;5041012;28;20211;-61
2021/03/13 06:23:14;;;;;;;24.73;20.27;;;4.50;90.40;;;;;;5035832;28;20261;-60
2021/03/13 06:25:43;;;;;;;31.43;23.77;;;4.60;90.50;;;;;;5028333;28;20286;-60
2021/03/13 06:28:19;;;;;;;28.87;23.57;;;4.60;90.40;;;;;;5032304;28;20199;-60
2021/03/13 06:31:04;;;;;;;27.63;22.53;;;4.70;90.30;;;;;;5030022;28;20203;-60
2021/03/13 06:33:34;;;;;;;24.07;21.33;;;4.80;90.40;;;;;;5033955;28;20238;-60
2021/03/13 06:36:04;;;;;;;23.63;20.70;;;4.90;90.40;;;;;;5032267;28;20223;-60
2021/03/13 06:38:33;;;;;;;24.03;21.03;;;5.10;90.40;;;;;;5041190;28;20218;-60
2021/03/13 06:41:11;;;;;;;24.23;21.63;;;5.20;90.20;;;;;;5031043;28;20210;-60
2021/03/13 06:43:40;;;;;;;26.43;21.23;;;5.30;90.20;;;;;;5029452;28;20208;-60
2021/03/13 06:46:14;;;;;;;26.50;22.33;;;5.40;90.50;;;;;;5031920;28;20207;-60
2021/03/13 06:48:51;;;;;;;24.80;22.17;;;5.50;90.30;;;;;;5041581;28;20213;-60
2021/03/13 06:51:30;;;;;;;26.17;22.30;;;5.70;90.30;;;;;;5030352;28;20214;-60
2021/03/13 06:54:06;;;;;;;25.03;21.93;;;5.90;90.20;;;;;;5038653;28;20242;-60
2021/03/13 06:56:47;;;;;;;24.37;21.47;;;6.10;90.10;;;;;;5014032;28;20234;-60
2021/03/13 06:59:38;;;;;;;24.40;21.70;;;6.30;90.00;;;;;;5035716;28;20215;-60
2021/03/13 07:02:11;;;;;;;24.13;21.10;;;6.60;89.80;;;;;;5036187;28;20215;-60
2021/03/13 07:04:42;;;;;;;32.67;21.70;;;6.80;89.40;;;;;;5042221;28;20213;-60
2021/03/13 07:07:13;;;;;;;21.93;18.83;;;7.10;89.00;;;;;;5042997;28;20211;-60
2021/03/13 07:09:54;;;;;;;22.57;18.83;;;7.30;88.60;;;;;;5043442;28;20211;-60
2021/03/13 07:12:35;;;;;;;20.03;17.80;;;7.50;88.10;;;;;;5025209;28;20207;-60
2021/03/13 07:15:25;;;;;;;21.63;18.97;;;7.60;87.70;;;;;;5026414;28;20210;-60
2021/03/13 07:17:59;;;;;;;20.20;18.00;;;7.80;87.30;;;;;;5008043;28;20255;-60
2021/03/13 07:20:30;;;;;;;20.53;18.40;;;7.90;86.90;;;;;;5034635;28;20212;-60
2021/03/13 07:22:59;;;;;;;19.03;17.13;;;8.00;87.00;;;;;;5015336;28;20204;-60
2021/03/13 07:25:28;;;;;;;20.30;18.20;;;8.10;86.80;;;;;;5040157;28;20278;-60
2021/03/13 07:28:01;;;;;;;18.97;17.07;;;8.30;86.60;;;;;;5030209;28;20215;-60
2021/03/13 07:30:30;;;;;;;21.97;18.70;;;8.40;86.10;;;;;;5033349;28;20215;-60
2021/03/13 07:33:03;;;;;;;20.70;18.50;;;8.50;86.00;;;;;;5031360;28;20266;-60
2021/03/13 07:35:49;;;;;;;21.80;17.67;;;8.60;86.00;;;;;;5043082;28;20215;-60
2021/03/13 07:38:18;;;;;;;20.73;18.13;;;8.70;85.70;;;;;;5036029;28;20628;-60
2021/03/13 07:40:47;;;;;;;21.30;18.23;;;8.90;85.50;;;;;;5019080;28;20258;-60
2021/03/13 07:43:16;;;;;;;19.50;17.40;;;9.10;85.40;;;;;;5029353;28;20220;-60
2021/03/13 07:45:47;;;;;;;18.73;16.83;;;9.30;85.00;;;;;;5041624;28;20653;-60
2021/03/13 07:48:15;;;;;;;19.93;17.83;;;9.40;84.40;;;;;;5035198;28;20846;-60
2021/03/13 07:50:47;;;;;;;19.10;17.20;;;9.60;83.90;;;;;;5034644;28;20241;-60
2021/03/13 07:53:16;;;;;;;21.50;16.40;;;9.80;83.80;;;;;;5044996;28;20321;-60
2021/03/13 07:55:51;;;;;;;20.33;15.40;;;10.10;83.30;;;;;;5020893;28;20262;-60
2021/03/13 07:58:23;;;;;;;18.43;15.50;;;10.30;82.40;;;;;;5025496;28;20268;-63
2021/03/13 08:00:50;;;;;;;18.30;15.73;;;10.40;81.80;;;;;;5032939;28;20626;-62
2021/03/13 08:03:32;;;;;;;20.37;15.13;;;10.70;81.60;;;;;;5020123;28;20295;-60
2021/03/13 08:06:07;;;;;;;15.80;14.13;;;10.90;80.90;;;;;;5037960;28;20296;-57
2021/03/13 08:08:46;;;;;;;19.73;13.83;;;11.20;80.20;;;;;;5021294;28;20214;-57
2021/03/13 08:11:15;;;;;;;19.60;14.67;;;11.40;79.10;;;;;;5035925;28;20211;-59
2021/03/13 08:13:42;;;;;;;21.60;15.83;;;11.40;78.50;;;;;;5027098;28;20215;-60
2021/03/13 08:16:14;;;;;;;17.43;14.53;;;11.40;78.60;;;;;;5017369;28;20243;-59
2021/03/13 08:18:43;;;;;;;18.37;14.47;;;11.50;78.80;;;;;;5021626;28;20798;-61
2021/03/13 08:21:21;;;;;;;26.53;16.27;;;11.50;78.50;;;;;;5029651;28;20845;-59
2021/03/13 08:23:55;;;;;;;21.13;16.37;;;11.70;78.40;;;;;;5026764;28;20213;-59
2021/03/13 08:26:35;;;;;;;18.13;15.80;;;11.80;77.90;;;;;;5024710;28;20215;-60
2021/03/13 08:29:03;;;;;;;18.73;14.87;;;11.90;77.90;;;;;;5006707;28;20219;-60
2021/03/13 08:31:33;;;;;;;21.40;16.17;;;12.10;77.80;;;;;;5044344;28;20293;-60
2021/03/13 08:34:20;;;;;;;23.40;16.03;;;12.30;77.60;;;;;;5023296;28;20250;-60
2021/03/13 08:36:52;;;;;;;20.03;15.93;;;12.60;76.50;;;;;;5001018;28;20743;-60
2021/03/13 08:39:21;;;;;;;18.87;15.80;;;12.80;76.40;;;;;;5009946;28;20223;-60
2021/03/13 08:41:51;;;;;;;21.97;15.27;;;13.00;75.80;;;;;;5011643;28;20203;-60
2021/03/13 08:44:27;;;;;;;26.33;17.73;;;13.10;75.40;;;;;;5006175;28;20299;-60
2021/03/13 08:47:03;;;;;;;25.10;17.20;;;13.10;75.20;;;;;;5012096;28;20710;-60
2021/03/13 08:49:30;;;;;;;28.03;18.33;;;13.30;75.20;;;;;;5010351;28;20526;-59
2021/03/13 08:52:19;;;;;;;25.17;20.00;;;13.50;74.80;;;;;;5013999;28;20207;-59
2021/03/13 08:54:50;;;;;;;25.97;18.67;;;13.70;74.20;;;;;;5004276;28;20207;-60
2021/03/13 08:57:24;;;;;;;25.30;19.60;;;13.80;73.40;;;;;;5014762;28;20236;-60
2021/03/13 08:59:54;;;;;;;25.97;19.97;;;14.00;73.70;;;;;;5010188;28;20212;-60
2021/03/13 09:02:38;;;;;;;26.20;18.57;;;14.10;72.50;;;;;;5022233;28;20618;-60
2021/03/13 09:05:13;;;;;;;28.27;17.27;;;14.20;71.00;;;;;;5016638;28;20531;-60
2021/03/13 09:07:55;;;;;;;28.37;18.97;;;14.20;70.90;;;;;;5017114;28;20206;-60
2021/03/13 09:10:24;;;;;;;23.87;18.67;;;14.30;70.50;;;;;;5021465;28;20237;-60
2021/03/13 09:12:51;;;;;;;28.90;19.70;;;14.50;71.00;;;;;;5023988;28;20211;-60
2021/03/13 09:15:18;;;;;;;22.20;18.17;;;14.70;71.20;;;;;;5015671;28;20218;-60
2021/03/13 09:17:44;;;;;;;27.27;17.10;;;14.80;70.30;;;;;;5005134;28;20583;-60
2021/03/13 09:20:17;;;;;;;26.13;17.57;;;14.90;69.60;;;;;;5020251;28;20233;-60
2021/03/13 09:22:46;;;;;;;33.43;17.43;;;15.10;69.20;;;;;;5007222;28;20207;-60
2021/03/13 09:25:20;;;;;;;89.70;27.97;;;15.20;68.10;;;;;;5015856;28;20262;-60
2021/03/13 09:27:49;;;;;;;27.70;15.60;;;15.40;68.40;;;;;;5010822;28;20242;-60
2021/03/13 09:30:22;;;;;;;22.57;14.27;;;15.60;67.40;;;;;;5015126;28;20223;-60
2021/03/13 09:32:50;;;;;;;28.80;14.93;;;15.80;66.50;;;;;;5014141;28;20206;-60
2021/03/13 09:35:22;;;;;;;26.97;15.73;;;16.00;66.40;;;;;;5028239;28;20246;-60
2021/03/13 09:37:49;;;;;;;26.73;15.50;;;16.10;66.00;;;;;;5031371;28;20549;-60
2021/03/13 09:40:18;;;;;;;30.50;17.30;;;16.30;65.40;;;;;;5027677;28;20222;-60
2021/03/13 09:42:46;;;;;;;32.07;17.77;;;16.30;65.20;;;;;;5029835;28;20272;-60
2021/03/13 09:45:16;;;;;;;59.57;26.17;;;16.20;64.20;;;;;;5035435;28;20207;-60
2021/03/13 09:47:58;;;;;;;123.38;42.63;;;16.20;65.90;;;;;;5024934;28;20483;-60
2021/03/13 09:50:34;;;;;;;44.38;25.55;;;16.30;67.00;;;;;;5028516;28;20422;-59
2021/03/13 09:53:03;;;;;;;59.83;23.30;;;16.50;65.70;;;;;;5013550;28;20327;-60
2021/03/13 09:55:30;;;;;;;25.63;17.67;;;16.60;64.70;;;;;;5031946;28;20297;-60
2021/03/13 09:58:02;;;;;;;40.27;20.70;;;16.70;64.40;;;;;;5033694;28;20506;-60
2021/03/13 10:00:38;;;;;;;34.83;18.50;;;16.90;64.30;;;;;;5024241;28;20237;-59
2021/03/13 10:03:12;;;;;;;23.33;16.87;;;17.00;64.20;;;;;;5040196;28;20221;-59
2021/03/13 10:05:40;;;;;;;24.40;16.43;;;17.10;63.80;;;;;;5043353;28;20206;-59
2021/03/13 10:08:09;;;;;;;28.57;16.97;;;17.10;63.50;;;;;;5037408;28;20670;-59
2021/03/13 10:10:36;;;;;;;26.53;17.50;;;17.20;63.30;;;;;;5033435;28;20229;-59
2021/03/13 10:13:06;;;;;;;25.33;16.17;;;17.30;63.30;;;;;;5040816;28;20211;-59
2021/03/13 10:15:36;;;;;;;28.83;17.40;;;17.40;62.10;;;;;;5044614;28;20552;-60
2021/03/13 10:18:06;;;;;;;29.90;18.00;;;17.50;61.50;;;;;;5035976;28;20238;-60
2021/03/13 10:20:38;;;;;;;25.27;17.87;;;17.50;61.40;;;;;;5022252;28;20687;-59
2021/03/13 10:23:15;;;;;;;28.03;16.63;;;17.50;61.60;;;;;;5033262;28;20622;-60
2021/03/13 10:25:52;;;;;;;25.30;17.10;;;17.60;61.40;;;;;;5036597;28;20244;-59
2021/03/13 10:28:18;;;;;;;28.13;18.00;;;17.60;61.20;;;;;;5024897;28;20206;-59
2021/03/13 10:30:47;;;;;;;27.57;17.60;;;17.70;60.40;;;;;;5038131;28;20246;-60
2021/03/13 10:33:15;;;;;;;26.87;15.83;;;17.70;60.00;;;;;;5032926;28;20274;-59
2021/03/13 10:35:49;;;;;;;27.47;17.20;;;17.80;59.40;;;;;;5033286;28;20218;-59
2021/03/13 10:38:20;;;;;;;25.50;15.23;;;17.90;58.60;;;;;;5031689;28;20268;-59
2021/03/13 10:40:49;;;;;;;23.33;14.13;;;18.10;58.70;;;;;;5029327;28;20704;-59
2021/03/13 10:43:22;;;;;;;22.93;14.17;;;18.10;58.00;;;;;;5025351;28;20302;-59
2021/03/13 10:45:58;;;;;;;24.17;15.37;;;18.10;56.90;;;;;;5009200;28;20251;-59
2021/03/13 10:48:30;;;;;;;25.63;15.83;;;18.00;57.60;;;;;;5031337;28;20523;-59
2021/03/13 10:50:57;;;;;;;24.87;16.77;;;18.10;57.60;;;;;;5026485;28;20211;-59
2021/03/13 10:53:34;;;;;;;25.47;17.13;;;18.10;58.10;;;;;;5039503;28;20245;-59
2021/03/13 10:56:19;;;;;;;25.77;13.93;;;18.10;58.00;;;;;;5037912;28;20585;-59
2021/03/13 10:58:57;;;;;;;22.40;14.43;;;18.10;58.30;;;;;;5034032;28;20307;-59
2021/03/13 11:01:25;;;;;;;26.93;16.20;;;18.20;58.00;;;;;;5037797;28;20214;-59
2021/03/13 11:03:55;;;;;;;31.20;15.10;;;18.20;57.00;;;;;;5030915;28;20226;-59
2021/03/13 11:06:25;;;;;;;25.53;14.03;;;18.20;57.20;;;;;;5037860;28;20562;-59
2021/03/13 11:08:53;;;;;;;24.70;14.97;;;18.10;58.00;;;;;;5031470;28;20637;-59
2021/03/13 11:11:20;;;;;;;30.20;15.20;;;18.20;57.50;;;;;;5027998;28;20211;-59
2021/03/13 11:13:47;;;;;;;21.97;13.00;;;18.30;57.40;;;;;;5035268;28;20207;-59
2021/03/13 11:16:22;;;;;;;29.03;14.13;;;18.50;57.10;;;;;;5037104;28;20547;-59
2021/03/13 11:18:54;;;;;;;24.27;13.80;;;18.60;56.50;;;;;;5019084;28;20217;-59
2021/03/13 11:21:24;;;;;;;23.23;10.93;;;18.70;56.60;;;;;;5051612;28;20310;-59
2021/03/13 11:23:52;;;;;;;22.77;14.03;;;18.80;56.10;;;;;;5030161;28;20222;-59
2021/03/13 11:26:20;;;;;;;26.53;14.77;;;18.90;55.10;;;;;;5043321;28;20218;-59
2021/03/13 11:28:47;;;;;;;28.70;13.70;;;18.90;55.90;;;;;;5026556;28;20679;-60
2021/03/13 11:31:14;;;;;;;24.40;13.53;;;19.00;56.00;;;;;;5022397;28;20210;-59
2021/03/13 11:33:42;;;;;;;26.53;12.27;;;19.00;55.80;;;;;;5046856;28;20234;-58
2021/03/13 11:36:10;;;;;;;21.60;12.53;;;19.00;56.40;;;;;;5028221;28;20222;-58
2021/03/13 11:38:37;;;;;;;23.80;12.60;;;19.00;55.80;;;;;;5014663;28;20629;-56
2021/03/13 11:41:05;;;;;;;19.57;12.37;;;19.00;55.60;;;;;;5036040;28;20538;-58
2021/03/13 11:43:38;;;;;;;21.23;10.87;;;19.10;55.50;;;;;;5025889;28;20226;-58
2021/03/13 11:46:06;;;;;;;30.73;11.40;;;19.30;54.90;;;;;;5029951;28;20218;-58
2021/03/13 11:48:33;;;;;;;21.23;11.07;;;19.30;54.70;;;;;;5032160;28;20215;-58
2021/03/13 11:51:00;;;;;;;22.90;11.00;;;19.30;54.20;;;;;;5029659;28;20299;-57
2021/03/13 11:53:27;;;;;;;18.50;10.90;;;19.30;54.10;;;;;;5038099;28;20234;-57
2021/03/13 11:55:56;;;;;;;19.53;11.03;;;19.40;54.20;;;;;;5040874;28;20297;-57
2021/03/13 11:58:22;;;;;;;18.40;10.23;;;19.50;53.00;;;;;;5021128;28;20258;-56
2021/03/13 12:01:09;;;;;;;26.47;10.53;;;19.50;53.50;;;;;;5037357;28;20215;-56
2021/03/13 12:03:36;;;;;;;23.10;9.20;;;19.40;53.80;;;;;;5025037;28;20218;-58
2021/03/13 12:06:04;;;;;;;20.50;9.80;;;19.50;54.10;;;;;;5017114;28;20231;-58
2021/03/13 12:08:47;;;;;;;20.93;8.90;;;19.50;54.40;;;;;;5023763;28;20299;-59
2021/03/13 12:11:14;;;;;;;17.20;9.27;;;19.50;53.20;;;;;;5025975;28;20204;-60
2021/03/13 12:13:41;;;;;;;16.00;7.37;;;19.50;53.40;;;;;;5049319;28;20265;-59
2021/03/13 12:16:08;;;;;;;17.57;7.97;;;19.60;52.40;;;;;;5043629;28;20237;-59
2021/03/13 12:18:35;;;;;;;21.97;7.83;;;19.60;51.90;;;;;;5032559;28;20227;-59
2021/03/13 12:21:03;;;;;;;18.63;7.57;;;19.70;53.00;;;;;;5037968;28;20294;-59
2021/03/13 12:23:30;;;;;;;14.07;6.57;;;19.70;52.10;;;;;;5015193;28;20622;-59
2021/03/13 12:25:57;;;;;;;15.17;6.80;;;19.80;52.20;;;;;;5041241;28;20503;-59
2021/03/13 12:28:23;;;;;;;18.27;6.77;;;20.00;52.10;;;;;;5042847;28;20211;-59
2021/03/13 12:30:50;;;;;;;18.33;7.17;;;20.10;51.00;;;;;;5038297;28;20299;-59
2021/03/13 12:33:18;;;;;;;17.40;6.30;;;20.20;51.20;;;;;;5036665;28;20305;-59
2021/03/13 12:35:45;;;;;;;16.57;7.00;;;20.30;51.00;;;;;;5030944;28;20601;-59
2021/03/13 12:38:11;;;;;;;18.77;7.53;;;20.30;50.10;;;;;;5032789;28;20235;-59
2021/03/13 12:40:58;;;;;;;12.83;6.27;;;20.30;50.80;;;;;;5019213;28;20291;-60
2021/03/13 12:43:25;;;;;;;19.10;7.40;;;20.30;50.20;;;;;;5032148;28;20213;-60
2021/03/13 12:45:52;;;;;;;14.97;7.03;;;20.30;49.90;;;;;;5042333;28;20202;-59
2021/03/13 12:48:19;;;;;;;19.77;6.67;;;20.10;51.00;;;;;;5025015;28;20628;-60
2021/03/13 12:50:45;;;;;;;14.57;6.13;;;20.10;49.80;;;;;;5017083;28;20215;-59
2021/03/13 12:53:12;;;;;;;20.27;6.63;;;20.00;49.80;;;;;;5044914;28;20650;-59